Archiv-/Tagesdaten

--Timestamp---	Temp	Chill	HIndex	Humid	Dewpt	 Wind 	HiWind	WindDir	Rain 	Barom	Solar	 ET  	 UV 
--------------	----	-----	------	-----	-----	------	------	-------	-----	-----	-----	-----	----
20260509 00:00	11.9	11.9	11.9	73	7.2	0	0	-100000	0.0	1015.5	0	0.025	0.0
20260509 00:05	11.8	11.8	11.8	74	7.3	0	0	-100000	0.0	1015.4	0	0.000	0.0
20260509 00:10	11.7	11.7	11.7	74	7.2	0	0	-100000	0.0	1015.4	0	0.000	0.0
20260509 00:15	11.6	11.6	11.6	74	7.1	0	0	-100000	0.0	1015.3	0	0.000	0.0
20260509 00:20	11.5	11.5	11.5	74	7.0	0	0	-100000	0.0	1015.5	0	0.000	0.0
20260509 00:25	11.4	11.4	11.4	74	7.0	0	0	-100000	0.0	1015.4	0	0.000	0.0
20260509 00:30	11.3	11.3	11.3	75	7.1	0	0	-100000	0.0	1015.4	0	0.000	0.0
20260509 00:35	11.2	11.2	11.2	75	7.0	0	0	-100000	0.0	1015.4	0	0.000	0.0
20260509 00:40	11.1	11.1	11.1	75	6.8	0	0	-100000	0.0	1015.5	0	0.000	0.0
20260509 00:45	11.0	11.0	11.0	75	6.7	0	0	-100000	0.0	1015.5	0	0.000	0.0
20260509 00:50	10.9	10.9	10.9	76	6.8	0	0	-100000	0.0	1015.5	0	0.000	0.0
20260509 00:55	10.8	10.8	10.8	77	7.0	0	0	-100000	0.0	1015.4	0	0.000	0.0
20260509 01:00	10.7	10.7	10.7	77	6.9	0	0	-100000	0.0	1015.5	0	0.025	0.0
20260509 01:05	10.6	10.6	10.6	77	6.7	0	0	-100000	0.0	1015.3	0	0.000	0.0
20260509 01:10	10.5	10.5	10.5	77	6.6	0	0	-100000	0.0	1015.2	0	0.000	0.0
20260509 01:15	10.3	10.3	10.3	78	6.7	0	0	-100000	0.0	1015.3	0	0.000	0.0
20260509 01:20	10.3	10.3	10.3	78	6.6	0	0	-100000	0.0	1015.3	0	0.000	0.0
20260509 01:25	10.3	10.3	10.3	79	6.8	0	0	-100000	0.0	1015.4	0	0.000	0.0
20260509 01:30	10.3	10.3	10.3	79	6.8	0	0	-100000	0.0	1015.3	0	0.000	0.0
20260509 01:35	10.5	10.5	10.5	78	6.8	0	0	-100000	0.0	1015.3	0	0.000	0.0
20260509 01:40	10.5	10.5	10.5	78	6.8	0	0	-100000	0.0	1015.2	0	0.000	0.0
20260509 01:45	10.5	10.5	10.5	78	6.8	0	0	-100000	0.0	1015.2	0	0.000	0.0
20260509 01:50	10.4	10.4	10.4	79	6.9	0	0	-100000	0.0	1015.1	0	0.000	0.0
20260509 01:55	10.3	10.3	10.3	79	6.8	0	0	-100000	0.0	1015.1	0	0.000	0.0
20260509 02:00	10.1	10.1	10.1	79	6.6	0	0	-100000	0.0	1015.2	0	0.025	0.0
20260509 02:05	10.0	10.0	10.0	79	6.5	0	0	-100000	0.0	1015.2	0	0.000	0.0
20260509 02:10	9.9	9.9	9.9	79	6.5	0	0	-100000	0.0	1015.2	0	0.000	0.0
20260509 02:15	9.9	9.9	9.9	80	6.6	0	0	-100000	0.0	1015.2	0	0.000	0.0
20260509 02:20	9.9	9.9	9.9	80	6.6	0	0	-100000	0.0	1015.2	0	0.000	0.0
20260509 02:25	9.8	9.8	9.8	80	6.5	0	0	-100000	0.0	1015.2	0	0.000	0.0
20260509 02:30	9.7	9.7	9.7	81	6.6	0	0	-100000	0.0	1015.3	0	0.000	0.0
20260509 02:35	9.7	9.7	9.7	81	6.6	0	0	-100000	0.0	1015.4	0	0.000	0.0
20260509 02:40	9.6	9.6	9.6	81	6.5	0	0	-100000	0.0	1015.4	0	0.000	0.0
20260509 02:45	9.5	9.5	9.5	81	6.4	0	0	-100000	0.0	1015.4	0	0.000	0.0
20260509 02:50	9.6	9.6	9.6	82	6.6	0	0	-100000	0.0	1015.4	0	0.000	0.0
20260509 02:55	9.5	9.5	9.5	81	6.4	0	0	-100000	0.0	1015.4	0	0.000	0.0
20260509 03:00	9.4	9.4	9.4	82	6.5	0	0	-100000	0.0	1015.3	0	0.025	0.0
20260509 03:05	9.3	9.3	9.3	82	6.4	0	0	-100000	0.0	1015.0	0	0.000	0.0
20260509 03:10	9.3	9.3	9.3	82	6.4	0	0	-100000	0.0	1015.1	0	0.000	0.0
20260509 03:15	9.2	9.2	9.2	82	6.3	0	0	-100000	0.0	1015.2	0	0.000	0.0
20260509 03:20	9.1	9.1	9.1	82	6.2	0	0	-100000	0.0	1015.2	0	0.000	0.0
20260509 03:25	9.1	9.1	9.1	82	6.1	0	0	-100000	0.0	1015.1	0	0.000	0.0
20260509 03:30	9.0	9.0	9.0	83	6.3	0	0	-100000	0.0	1015.1	0	0.000	0.0
20260509 03:35	8.9	8.9	8.9	83	6.2	0	0	-100000	0.0	1015.1	0	0.000	0.0
20260509 03:40	8.9	8.9	8.9	84	6.3	0	0	-100000	0.0	1015.1	0	0.000	0.0
20260509 03:45	8.9	8.9	8.9	84	6.4	0	0	-100000	0.0	1015.1	0	0.000	0.0
20260509 03:50	8.9	8.9	8.9	84	6.3	0	0	-100000	0.0	1015.0	0	0.000	0.0
20260509 03:55	8.9	8.9	8.9	84	6.3	0	0	-100000	0.0	1015.0	0	0.000	0.0
20260509 04:00	8.9	8.9	8.9	84	6.3	0	0	-100000	0.0	1015.0	0	0.000	0.0
20260509 04:05	8.9	8.9	8.9	84	6.3	0	0	-100000	0.0	1015.1	0	0.000	0.0
20260509 04:10	8.9	8.9	8.9	84	6.3	0	0	-100000	0.0	1015.2	0	0.000	0.0
20260509 04:15	8.9	8.9	8.9	84	6.3	0	0	-100000	0.0	1015.3	0	0.000	0.0
20260509 04:20	8.8	8.8	8.8	84	6.3	0	0	-100000	0.0	1015.3	0	0.000	0.0
20260509 04:25	8.8	8.8	8.8	84	6.3	0	0	-100000	0.0	1015.3	0	0.000	0.0
20260509 04:30	8.7	8.7	8.7	84	6.2	0	0	-100000	0.0	1015.4	0	0.000	0.0
20260509 04:35	8.7	8.7	8.7	84	6.1	0	0	-100000	0.0	1015.4	0	0.000	0.0
20260509 04:40	8.6	8.6	8.6	84	6.0	0	0	-100000	0.0	1015.4	0	0.000	0.0
20260509 04:45	8.5	8.5	8.5	84	6.0	0	0	-100000	0.0	1015.4	0	0.000	0.0
20260509 04:50	8.4	8.4	8.4	85	6.0	0	0	-100000	0.0	1015.4	0	0.000	0.0
20260509 04:55	8.3	8.3	8.3	85	6.0	0	0	-100000	0.0	1015.4	0	0.000	0.0
20260509 05:00	8.3	8.3	8.3	85	6.0	0	0	-100000	0.0	1015.5	0	0.000	0.0
20260509 05:05	8.4	8.4	8.4	86	6.2	0	0	-100000	0.0	1015.5	0	0.000	0.0
20260509 05:10	8.6	8.6	8.6	86	6.3	0	0	-100000	0.0	1015.5	0	0.000	0.0
20260509 05:15	8.6	8.6	8.6	86	6.3	0	0	-100000	0.0	1015.6	0	0.000	0.0
20260509 05:20	8.6	8.6	8.6	86	6.4	0	0	-100000	0.0	1015.6	0	0.000	0.0
20260509 05:25	8.7	8.7	8.7	86	6.5	0	0	-100000	0.0	1015.6	0	0.000	0.0
20260509 05:30	8.8	8.8	8.8	86	6.6	0	0	-100000	0.0	1015.5	0	0.000	0.0
20260509 05:35	8.8	8.8	8.8	86	6.6	0	0	-100000	0.0	1015.6	0	0.000	0.0
20260509 05:40	8.8	8.8	8.8	86	6.6	0	0	-100000	0.0	1015.6	0	0.000	0.0
20260509 05:45	8.7	8.7	8.7	85	6.3	0	0	-100000	0.0	1015.6	2	0.000	0.0
20260509 05:50	8.7	8.7	8.7	85	6.3	0	0	-100000	0.0	1015.4	5	0.000	0.0
20260509 05:55	8.7	8.7	8.7	86	6.5	0	0	-100000	0.0	1015.5	7	0.000	0.0
20260509 06:00	8.7	8.7	8.7	86	6.5	0	0	-100000	0.0	1015.4	10	0.000	0.0
20260509 06:05	8.7	8.7	8.7	86	6.5	0	0	-100000	0.0	1015.5	12	0.000	0.0
20260509 06:10	8.7	8.7	8.7	86	6.5	0	0	-100000	0.0	1015.5	18	0.000	0.0
20260509 06:15	8.8	8.8	8.8	86	6.6	0	0	-100000	0.0	1015.5	23	0.000	0.0
20260509 06:20	8.8	8.8	8.8	86	6.6	0	0	-100000	0.0	1015.5	30	0.000	0.0
20260509 06:25	8.8	8.8	8.8	86	6.6	0	0	-100000	0.0	1015.6	36	0.000	0.0
20260509 06:30	8.9	8.9	8.9	86	6.7	0	0	-100000	0.0	1015.8	43	0.000	0.0
20260509 06:35	9.0	9.0	9.0	86	6.8	3	6	270	0.0	1015.9	46	0.000	0.0
20260509 06:40	8.9	8.9	8.9	86	6.7	2	5	270	0.0	1016.1	41	0.000	0.0
20260509 06:45	9.0	9.0	9.0	86	6.8	0	0	-100000	0.0	1016.1	39	0.000	0.0
20260509 06:50	9.1	9.1	9.1	86	6.8	0	2	270	0.0	1016.2	36	0.000	0.0
20260509 06:55	9.1	9.1	9.1	86	6.9	0	3	270	0.0	1016.2	38	0.000	0.0
20260509 07:00	9.2	9.2	9.2	86	7.0	0	2	45	0.0	1016.2	50	0.025	0.0
20260509 07:05	9.3	9.3	9.3	86	7.1	0	0	-100000	0.0	1016.3	80	0.000	0.0
20260509 07:10	9.4	9.4	9.4	86	7.2	0	0	-100000	0.0	1016.3	122	0.000	0.0
20260509 07:15	9.7	9.7	9.7	86	7.5	0	0	-100000	0.0	1016.3	142	0.000	0.0
20260509 07:20	9.9	9.9	9.9	85	7.5	0	2	45	0.0	1016.3	148	0.000	0.0
20260509 07:25	10.3	10.3	10.3	84	7.7	0	0	-100000	0.0	1016.3	142	0.000	0.0
20260509 07:30	10.6	10.6	10.6	83	7.8	0	3	45	0.0	1016.4	148	0.000	0.0
20260509 07:35	10.8	10.8	10.8	82	7.8	0	2	180	0.0	1016.4	134	0.000	0.0
20260509 07:40	11.0	11.0	11.0	82	8.0	2	6	180	0.0	1016.7	146	0.000	0.0
20260509 07:45	11.1	11.1	11.1	82	8.2	3	10	202	0.0	1016.6	141	0.000	0.0
20260509 07:50	11.2	11.2	11.2	82	8.2	3	10	180	0.0	1016.6	120	0.000	0.0
20260509 07:55	11.2	11.2	11.2	82	8.2	5	8	202	0.0	1016.6	112	0.000	0.0
20260509 08:00	11.1	11.1	11.1	81	7.9	3	8	248	0.0	1016.6	90	0.051	0.0
20260509 08:05	11.1	11.1	11.1	82	8.2	3	8	135	0.0	1016.7	82	0.000	0.0
20260509 08:10	11.2	11.2	11.2	82	8.3	3	6	135	0.0	1016.8	81	0.000	0.0
20260509 08:15	11.3	11.3	11.3	82	8.4	2	6	135	0.0	1016.8	93	0.000	0.0
20260509 08:20	11.4	11.4	11.4	81	8.3	3	6	135	0.0	1016.8	111	0.000	0.0
20260509 08:25	11.6	11.6	11.6	81	8.5	3	6	135	0.0	1016.7	135	0.000	0.0
20260509 08:30	11.8	11.8	11.8	80	8.4	3	6	135	0.0	1016.7	139	0.000	0.0
20260509 08:35	11.9	11.9	11.9	80	8.5	3	10	135	0.0	1016.6	136	0.000	0.0
20260509 08:40	12.1	12.1	12.1	79	8.5	5	10	135	0.0	1016.3	134	0.000	0.0
20260509 08:45	12.2	12.2	12.2	79	8.7	3	8	135	0.0	1016.3	138	0.000	0.0
20260509 08:50	12.3	12.3	12.3	79	8.8	3	8	135	0.0	1016.4	139	0.000	0.0
20260509 08:55	12.5	12.5	12.5	79	9.0	3	8	112	0.0	1016.3	151	0.000	0.2
20260509 09:00	12.6	12.6	12.6	78	8.9	3	5	112	0.0	1016.4	175	0.076	0.5
20260509 09:05	12.8	12.8	12.8	78	9.0	3	5	112	0.0	1016.6	188	0.000	0.5
20260509 09:10	12.9	12.9	12.9	78	9.1	3	6	112	0.0	1016.6	196	0.000	0.5
20260509 09:15	13.0	13.0	13.0	77	9.1	2	5	90	0.0	1016.7	180	0.000	0.5
20260509 09:20	13.2	13.2	13.2	77	9.2	2	3	90	0.0	1016.6	150	0.000	0.5
20260509 09:25	13.2	13.2	13.2	77	9.3	0	2	135	0.0	1016.7	139	0.000	0.5
20260509 09:30	13.2	13.2	13.2	76	9.1	0	3	135	0.0	1016.8	133	0.000	0.5
20260509 09:35	13.1	13.1	13.1	77	9.2	2	5	45	0.0	1016.7	136	0.000	0.5
20260509 09:40	13.1	13.1	13.1	77	9.2	0	3	45	0.0	1016.7	143	0.000	0.6
20260509 09:45	13.1	13.1	13.1	77	9.2	0	0	-100000	0.0	1016.6	151	0.000	0.6
20260509 09:50	13.2	13.2	13.2	77	9.3	0	0	-100000	0.0	1016.6	145	0.000	0.7
20260509 09:55	13.3	13.3	13.3	77	9.4	0	3	68	0.0	1016.6	132	0.000	0.7
20260509 10:00	13.4	13.4	13.4	77	9.4	2	5	68	0.0	1016.6	164	0.076	0.9
20260509 10:05	13.6	13.6	13.6	78	9.8	2	6	68	0.0	1016.7	268	0.000	1.1
20260509 10:10	13.7	13.7	13.7	77	9.8	3	6	112	0.0	1016.6	124	0.000	1.0
20260509 10:15	13.8	13.8	13.8	77	9.9	3	5	68	0.0	1016.6	91	0.000	1.0
20260509 10:20	14.2	14.2	14.2	76	10.0	3	6	90	0.0	1016.5	82	0.000	1.1
20260509 10:25	14.4	14.4	14.4	74	9.9	5	8	112	0.0	1016.6	77	0.000	1.1
20260509 10:30	14.7	14.7	14.7	74	10.1	3	6	45	0.0	1016.5	72	0.000	1.1
20260509 10:35	14.8	14.8	14.8	75	10.4	3	8	90	0.0	1016.5	73	0.000	1.1
20260509 10:40	15.1	15.1	15.1	74	10.5	2	6	90	0.0	1016.5	72	0.000	1.1
20260509 10:45	15.3	15.3	15.3	73	10.5	3	6	45	0.0	1016.5	70	0.000	1.2
20260509 10:50	15.3	15.3	15.3	73	10.5	2	6	68	0.0	1016.5	70	0.000	1.2
20260509 10:55	15.6	15.6	15.6	73	10.8	2	5	112	0.0	1016.5	70	0.000	1.2
20260509 11:00	16.1	16.1	16.1	71	10.8	2	5	112	0.0	1016.3	72	0.051	1.3
20260509 11:05	16.3	16.3	16.3	70	10.8	3	8	45	0.0	1016.5	72	0.000	1.3
20260509 11:10	16.4	16.4	16.4	68	10.5	3	6	45	0.0	1016.5	72	0.000	1.3
20260509 11:15	16.8	16.8	16.8	69	11.1	3	8	90	0.0	1016.4	72	0.000	1.3
20260509 11:20	17.1	17.1	17.1	69	11.3	3	10	45	0.0	1016.3	72	0.000	1.3
20260509 11:25	17.2	17.2	17.2	68	11.3	3	10	68	0.0	1016.2	72	0.000	1.3
20260509 11:30	17.5	17.5	17.5	67	11.3	5	10	68	0.0	1016.2	70	0.000	1.4
20260509 11:35	17.5	17.5	17.5	67	11.3	3	11	45	0.0	1016.1	114	0.000	1.4
20260509 11:40	17.8	17.8	17.8	66	11.3	3	11	45	0.0	1016.1	765	0.000	1.8
20260509 11:45	18.0	18.0	18.0	64	11.1	5	10	22	0.0	1016.1	774	0.000	2.8
20260509 11:50	18.1	18.1	18.1	64	11.1	8	19	45	0.0	1015.9	784	0.000	2.9
20260509 11:55	18.3	18.3	18.3	62	10.9	5	11	90	0.0	1015.9	791	0.000	3.0
20260509 12:00	18.4	18.4	18.4	61	10.7	8	16	45	0.0	1015.9	799	0.229	3.0
20260509 12:05	18.4	18.4	18.4	62	11.0	8	19	45	0.0	1015.9	805	0.000	3.1
20260509 12:10	18.9	18.9	18.9	59	10.7	6	16	90	0.0	1015.9	811	0.000	3.2
20260509 12:15	19.4	19.4	19.4	58	11.0	6	18	90	0.0	1015.7	811	0.000	3.2
20260509 12:20	19.5	19.5	19.5	59	11.3	5	11	90	0.0	1015.6	810	0.000	3.1
20260509 12:25	19.5	19.5	19.5	59	11.3	10	21	45	0.0	1015.6	811	0.000	3.2
20260509 12:30	19.3	19.3	19.3	58	10.8	10	19	45	0.0	1015.6	818	0.000	3.2
20260509 12:35	19.4	19.4	19.4	59	11.2	5	14	45	0.0	1015.6	826	0.000	3.3
20260509 12:40	19.4	19.4	19.4	57	10.7	8	19	45	0.0	1015.5	818	0.000	3.2
20260509 12:45	19.7	19.7	19.7	56	10.7	10	19	45	0.0	1015.5	819	0.000	3.2
20260509 12:50	19.9	19.9	19.9	57	11.1	8	19	45	0.0	1015.4	826	0.000	3.3
20260509 12:55	20.2	20.2	20.2	55	10.8	6	14	45	0.0	1015.4	831	0.000	3.3
20260509 13:00	20.2	20.2	20.2	56	11.2	6	14	45	0.0	1015.3	837	0.508	3.4
20260509 13:05	20.7	20.7	20.7	54	11.0	6	16	112	0.0	1015.2	835	0.000	3.3
20260509 13:10	20.7	20.7	20.7	54	11.0	10	18	45	0.0	1015.2	848	0.000	3.4
20260509 13:15	20.2	20.2	20.2	54	10.6	10	18	45	0.0	1015.2	853	0.000	3.4
20260509 13:20	20.4	20.4	20.4	54	10.8	8	18	68	0.0	1015.1	844	0.000	3.4
20260509 13:25	20.4	20.4	20.4	52	10.2	8	16	22	0.0	1015.1	847	0.000	3.4
20260509 13:30	20.5	20.5	20.5	54	10.9	5	19	68	0.0	1015.0	829	0.000	3.3
20260509 13:35	21.1	21.1	21.1	54	11.4	5	16	158	0.0	1014.9	625	0.000	2.7
20260509 13:40	21.4	21.4	21.4	52	11.1	8	19	90	0.0	1014.9	875	0.000	2.9
20260509 13:45	21.3	21.3	21.3	52	11.1	8	16	68	0.0	1014.9	894	0.000	3.5
20260509 13:50	21.6	21.6	21.6	52	11.3	6	19	45	0.0	1014.9	916	0.000	3.5
20260509 13:55	21.4	21.4	21.4	52	11.2	8	23	45	0.0	1014.9	906	0.000	3.3
20260509 14:00	21.6	21.6	21.6	51	11.0	6	23	90	0.0	1014.8	910	0.533	3.4
20260509 14:05	21.1	21.1	21.1	51	10.6	11	23	45	0.0	1014.9	884	0.000	3.4
20260509 14:10	20.9	20.9	20.9	51	10.4	10	18	0	0.0	1014.8	894	0.000	3.3
20260509 14:15	20.9	20.9	20.9	51	10.4	8	16	45	0.0	1014.8	889	0.000	2.9
20260509 14:20	20.9	20.9	20.9	51	10.4	8	18	22	0.0	1014.7	891	0.000	3.3
20260509 14:25	21.1	21.1	21.1	51	10.5	10	19	45	0.0	1014.7	840	0.000	3.2
20260509 14:30	21.0	21.0	21.0	50	10.2	8	18	45	0.0	1014.6	817	0.000	3.2
20260509 14:35	21.1	21.1	21.1	51	10.6	10	18	22	0.0	1014.6	856	0.000	3.2
20260509 14:40	21.6	21.6	21.6	51	11.0	8	16	68	0.0	1014.5	407	0.000	2.3
20260509 14:45	21.7	21.7	21.7	49	10.5	5	10	68	0.0	1014.5	663	0.000	2.6
20260509 14:50	21.7	21.7	21.7	49	10.5	8	14	68	0.0	1014.4	860	0.000	3.1
20260509 14:55	21.7	21.7	21.7	49	10.5	10	18	68	0.0	1014.4	551	0.000	2.5
20260509 15:00	21.5	21.5	21.5	49	10.3	8	18	45	0.0	1014.4	786	0.508	2.7
20260509 15:05	21.7	21.7	21.7	48	10.2	8	14	45	0.0	1014.4	797	0.000	2.9
20260509 15:10	21.9	21.9	21.9	47	10.1	10	18	68	0.0	1014.4	793	0.000	2.3
20260509 15:15	21.2	21.2	21.2	49	10.1	10	18	45	0.0	1014.5	416	0.000	2.1
20260509 15:20	21.6	21.6	21.6	48	10.1	8	18	68	0.0	1014.4	750	0.000	2.6
20260509 15:25	21.6	21.6	21.6	49	10.4	8	19	45	0.0	1014.4	730	0.000	2.5



Please note the license to use and transfer of this data:
https://creativecommons.org/licenses/by-nc-sa/3.0/deed.en

Bitte beachten sie die Lizenz zur Verwertung und Weitergabe der Daten:
https://creativecommons.org/licenses/by-nc-sa/3.0/deed.de

zurück zur Übersicht der Archivdaten (Monats und Tagesdaten)